sensor_id;sensor_type;location;lat;lon;timestamp;temperature;humidity
37910;DHT22;23741;49.446;8.754;2023-08-24T00:01:47;24.20;55.70
37910;DHT22;23741;49.446;8.754;2023-08-24T00:03:49;24.20;55.90
37910;DHT22;23741;49.446;8.754;2023-08-24T00:05:51;24.20;56.10
37910;DHT22;23741;49.446;8.754;2023-08-24T00:07:53;24.20;56.00
37910;DHT22;23741;49.446;8.754;2023-08-24T00:09:55;24.20;55.80
37910;DHT22;23741;49.446;8.754;2023-08-24T00:11:56;24.20;55.80
37910;DHT22;23741;49.446;8.754;2023-08-24T00:13:58;24.20;56.20
37910;DHT22;23741;49.446;8.754;2023-08-24T00:16:00;24.10;56.00
37910;DHT22;23741;49.446;8.754;2023-08-24T00:18:02;24.20;56.30
37910;DHT22;23741;49.446;8.754;2023-08-24T00:20:04;24.10;56.00
37910;DHT22;23741;49.446;8.754;2023-08-24T00:22:08;24.10;56.00
37910;DHT22;23741;49.446;8.754;2023-08-24T00:24:10;24.00;55.90
37910;DHT22;23741;49.446;8.754;2023-08-24T00:26:12;24.10;56.10
37910;DHT22;23741;49.446;8.754;2023-08-24T00:28:14;24.10;56.30
37910;DHT22;23741;49.446;8.754;2023-08-24T00:30:16;24.00;56.20
37910;DHT22;23741;49.446;8.754;2023-08-24T00:32:19;24.00;56.20
37910;DHT22;23741;49.446;8.754;2023-08-24T00:34:20;24.00;56.20
37910;DHT22;23741;49.446;8.754;2023-08-24T00:36:22;24.00;56.40
37910;DHT22;23741;49.446;8.754;2023-08-24T00:38:25;24.00;56.20
37910;DHT22;23741;49.446;8.754;2023-08-24T00:40:26;23.90;56.40
37910;DHT22;23741;49.446;8.754;2023-08-24T00:42:28;23.90;56.30
37910;DHT22;23741;49.446;8.754;2023-08-24T00:44:30;23.90;56.40
37910;DHT22;23741;49.446;8.754;2023-08-24T00:46:33;23.90;56.30
37910;DHT22;23741;49.446;8.754;2023-08-24T00:48:35;23.90;56.30
37910;DHT22;23741;49.446;8.754;2023-08-24T00:50:38;23.90;56.30
37910;DHT22;23741;49.446;8.754;2023-08-24T00:52:40;23.90;56.70
37910;DHT22;23741;49.446;8.754;2023-08-24T00:54:42;23.90;56.70
37910;DHT22;23741;49.446;8.754;2023-08-24T00:56:44;23.90;56.50
37910;DHT22;23741;49.446;8.754;2023-08-24T00:58:46;23.90;56.60
37910;DHT22;23741;49.446;8.754;2023-08-24T01:00:49;23.80;56.40
37910;DHT22;23741;49.446;8.754;2023-08-24T01:02:52;23.90;56.70
37910;DHT22;23741;49.446;8.754;2023-08-24T01:04:54;23.90;56.70
37910;DHT22;23741;49.446;8.754;2023-08-24T01:06:56;23.90;56.70
37910;DHT22;23741;49.446;8.754;2023-08-24T01:08:58;23.90;56.70
37910;DHT22;23741;49.446;8.754;2023-08-24T01:13:08;23.90;56.70
37910;DHT22;23741;49.446;8.754;2023-08-24T01:17:34;23.90;56.90
37910;DHT22;23741;49.446;8.754;2023-08-24T01:19:37;23.90;56.80
37910;DHT22;23741;49.446;8.754;2023-08-24T01:21:40;23.90;56.90
37910;DHT22;23741;49.446;8.754;2023-08-24T01:23:48;23.90;57.10
37910;DHT22;23741;49.446;8.754;2023-08-24T01:26:05;23.90;57.00
37910;DHT22;23741;49.446;8.754;2023-08-24T01:28:08;23.80;57.00
37910;DHT22;23741;49.446;8.754;2023-08-24T01:30:10;23.80;56.80
37910;DHT22;23741;49.446;8.754;2023-08-24T01:32:12;23.80;56.90
37910;DHT22;23741;49.446;8.754;2023-08-24T01:34:14;23.80;57.10
37910;DHT22;23741;49.446;8.754;2023-08-24T01:36:15;23.80;56.90
37910;DHT22;23741;49.446;8.754;2023-08-24T01:38:21;23.80;57.20
37910;DHT22;23741;49.446;8.754;2023-08-24T01:40:27;23.80;57.20
37910;DHT22;23741;49.446;8.754;2023-08-24T01:42:32;23.80;57.20
37910;DHT22;23741;49.446;8.754;2023-08-24T01:44:35;23.70;57.20
37910;DHT22;23741;49.446;8.754;2023-08-24T01:46:39;23.80;57.00
37910;DHT22;23741;49.446;8.754;2023-08-24T01:48:41;23.70;57.30
37910;DHT22;23741;49.446;8.754;2023-08-24T01:50:43;23.70;57.20
37910;DHT22;23741;49.446;8.754;2023-08-24T01:52:45;23.70;57.20
37910;DHT22;23741;49.446;8.754;2023-08-24T01:54:47;23.70;57.40
37910;DHT22;23741;49.446;8.754;2023-08-24T01:56:49;23.70;57.50
37910;DHT22;23741;49.446;8.754;2023-08-24T01:58:51;23.70;57.30
37910;DHT22;23741;49.446;8.754;2023-08-24T02:00:53;23.70;57.30
37910;DHT22;23741;49.446;8.754;2023-08-24T02:02:54;23.70;57.20
37910;DHT22;23741;49.446;8.754;2023-08-24T02:04:56;23.60;57.30
37910;DHT22;23741;49.446;8.754;2023-08-24T02:06:58;23.60;57.50
37910;DHT22;23741;49.446;8.754;2023-08-24T02:09:00;23.60;57.40
37910;DHT22;23741;49.446;8.754;2023-08-24T02:11:03;23.60;57.30
37910;DHT22;23741;49.446;8.754;2023-08-24T02:13:06;23.60;57.40
37910;DHT22;23741;49.446;8.754;2023-08-24T02:15:08;23.60;57.60
37910;DHT22;23741;49.446;8.754;2023-08-24T02:17:11;23.60;57.50
37910;DHT22;23741;49.446;8.754;2023-08-24T02:19:13;23.60;58.20
37910;DHT22;23741;49.446;8.754;2023-08-24T02:21:15;23.60;57.70
37910;DHT22;23741;49.446;8.754;2023-08-24T02:23:17;23.60;57.60
37910;DHT22;23741;49.446;8.754;2023-08-24T02:25:19;23.50;57.60
37910;DHT22;23741;49.446;8.754;2023-08-24T02:27:20;23.50;57.80
37910;DHT22;23741;49.446;8.754;2023-08-24T02:29:22;23.50;57.60
37910;DHT22;23741;49.446;8.754;2023-08-24T02:31:24;23.50;57.60
37910;DHT22;23741;49.446;8.754;2023-08-24T02:33:26;23.50;57.90
37910;DHT22;23741;49.446;8.754;2023-08-24T02:35:27;23.50;57.60
37910;DHT22;23741;49.446;8.754;2023-08-24T02:37:29;23.60;57.60
37910;DHT22;23741;49.446;8.754;2023-08-24T02:39:31;23.50;57.60
37910;DHT22;23741;49.446;8.754;2023-08-24T02:41:33;23.50;57.60
37910;DHT22;23741;49.446;8.754;2023-08-24T02:43:35;23.50;57.60
37910;DHT22;23741;49.446;8.754;2023-08-24T02:45:38;23.50;57.60
37910;DHT22;23741;49.446;8.754;2023-08-24T02:47:39;23.50;57.90
37910;DHT22;23741;49.446;8.754;2023-08-24T02:49:41;23.50;57.70
37910;DHT22;23741;49.446;8.754;2023-08-24T02:51:45;23.50;57.90
37910;DHT22;23741;49.446;8.754;2023-08-24T02:53:46;23.50;57.90
37910;DHT22;23741;49.446;8.754;2023-08-24T02:55:48;23.60;57.70
37910;DHT22;23741;49.446;8.754;2023-08-24T02:57:50;23.50;58.00
37910;DHT22;23741;49.446;8.754;2023-08-24T02:59:52;23.50;58.00
37910;DHT22;23741;49.446;8.754;2023-08-24T03:01:54;23.50;58.00
37910;DHT22;23741;49.446;8.754;2023-08-24T03:03:55;23.50;57.90
37910;DHT22;23741;49.446;8.754;2023-08-24T03:05:59;23.50;57.90
37910;DHT22;23741;49.446;8.754;2023-08-24T03:08:03;23.50;58.00
37910;DHT22;23741;49.446;8.754;2023-08-24T03:10:06;23.50;57.90
37910;DHT22;23741;49.446;8.754;2023-08-24T03:12:08;23.50;57.80
37910;DHT22;23741;49.446;8.754;2023-08-24T03:14:09;23.50;57.90
37910;DHT22;23741;49.446;8.754;2023-08-24T03:16:11;23.50;57.70
37910;DHT22;23741;49.446;8.754;2023-08-24T03:18:13;23.40;57.90
37910;DHT22;23741;49.446;8.754;2023-08-24T03:20:15;23.50;58.00
37910;DHT22;23741;49.446;8.754;2023-08-24T03:22:17;23.50;57.90
37910;DHT22;23741;49.446;8.754;2023-08-24T03:24:19;23.40;58.00
37910;DHT22;23741;49.446;8.754;2023-08-24T03:26:24;23.40;58.10
37910;DHT22;23741;49.446;8.754;2023-08-24T03:28:28;23.40;57.90
37910;DHT22;23741;49.446;8.754;2023-08-24T03:30:29;23.40;58.20
37910;DHT22;23741;49.446;8.754;2023-08-24T03:32:31;23.50;58.00
37910;DHT22;23741;49.446;8.754;2023-08-24T03:34:33;23.40;58.00
37910;DHT22;23741;49.446;8.754;2023-08-24T03:36:35;23.40;58.10
37910;DHT22;23741;49.446;8.754;2023-08-24T03:38:37;23.50;58.10
37910;DHT22;23741;49.446;8.754;2023-08-24T03:40:39;23.40;58.20
37910;DHT22;23741;49.446;8.754;2023-08-24T03:42:41;23.40;58.30
37910;DHT22;23741;49.446;8.754;2023-08-24T03:44:42;23.40;58.50
37910;DHT22;23741;49.446;8.754;2023-08-24T03:46:44;23.50;58.60
37910;DHT22;23741;49.446;8.754;2023-08-24T03:48:46;23.40;58.40
37910;DHT22;23741;49.446;8.754;2023-08-24T03:50:48;23.40;58.40
37910;DHT22;23741;49.446;8.754;2023-08-24T03:52:50;23.50;58.20
37910;DHT22;23741;49.446;8.754;2023-08-24T03:54:52;23.50;58.20
37910;DHT22;23741;49.446;8.754;2023-08-24T03:56:53;23.50;58.40
37910;DHT22;23741;49.446;8.754;2023-08-24T03:58:55;23.50;58.40
37910;DHT22;23741;49.446;8.754;2023-08-24T04:00:57;23.50;58.20
37910;DHT22;23741;49.446;8.754;2023-08-24T04:03:00;23.50;58.00
37910;DHT22;23741;49.446;8.754;2023-08-24T04:05:02;23.50;58.10
37910;DHT22;23741;49.446;8.754;2023-08-24T04:07:04;23.50;58.30
37910;DHT22;23741;49.446;8.754;2023-08-24T04:09:06;23.50;58.20
37910;DHT22;23741;49.446;8.754;2023-08-24T04:11:08;23.50;58.30
37910;DHT22;23741;49.446;8.754;2023-08-24T04:13:10;23.50;58.20
37910;DHT22;23741;49.446;8.754;2023-08-24T04:15:12;23.60;58.30
37910;DHT22;23741;49.446;8.754;2023-08-24T04:17:13;23.50;58.40
37910;DHT22;23741;49.446;8.754;2023-08-24T04:19:15;23.60;58.20
37910;DHT22;23741;49.446;8.754;2023-08-24T04:21:17;23.60;58.30
37910;DHT22;23741;49.446;8.754;2023-08-24T04:23:23;23.60;58.00
37910;DHT22;23741;49.446;8.754;2023-08-24T04:25:25;23.60;57.90
37910;DHT22;23741;49.446;8.754;2023-08-24T04:27:27;23.60;58.00
37910;DHT22;23741;49.446;8.754;2023-08-24T04:29:28;23.60;58.10
37910;DHT22;23741;49.446;8.754;2023-08-24T04:31:30;23.60;58.20
37910;DHT22;23741;49.446;8.754;2023-08-24T04:33:32;23.60;58.20
37910;DHT22;23741;49.446;8.754;2023-08-24T04:35:34;23.70;58.00
37910;DHT22;23741;49.446;8.754;2023-08-24T04:37:36;23.70;58.20
37910;DHT22;23741;49.446;8.754;2023-08-24T04:39:38;23.70;58.20
37910;DHT22;23741;49.446;8.754;2023-08-24T04:41:40;23.70;58.30
37910;DHT22;23741;49.446;8.754;2023-08-24T04:43:42;23.70;58.20
37910;DHT22;23741;49.446;8.754;2023-08-24T04:45:50;23.70;58.20
37910;DHT22;23741;49.446;8.754;2023-08-24T04:47:54;23.70;58.20
37910;DHT22;23741;49.446;8.754;2023-08-24T04:49:55;23.70;58.20
37910;DHT22;23741;49.446;8.754;2023-08-24T04:51:57;23.80;58.20
37910;DHT22;23741;49.446;8.754;2023-08-24T04:53:59;23.70;58.40
37910;DHT22;23741;49.446;8.754;2023-08-24T04:56:01;23.80;58.40
37910;DHT22;23741;49.446;8.754;2023-08-24T04:58:02;23.80;58.20
37910;DHT22;23741;49.446;8.754;2023-08-24T05:00:04;23.80;58.10
37910;DHT22;23741;49.446;8.754;2023-08-24T05:02:07;23.80;58.30
37910;DHT22;23741;49.446;8.754;2023-08-24T05:04:09;23.80;58.20
37910;DHT22;23741;49.446;8.754;2023-08-24T05:06:11;23.80;58.30
37910;DHT22;23741;49.446;8.754;2023-08-24T05:08:13;23.80;58.30
37910;DHT22;23741;49.446;8.754;2023-08-24T05:10:14;23.80;58.30
37910;DHT22;23741;49.446;8.754;2023-08-24T05:12:16;23.80;58.30
37910;DHT22;23741;49.446;8.754;2023-08-24T05:14:18;23.80;58.30
37910;DHT22;23741;49.446;8.754;2023-08-24T05:16:19;23.80;58.30
37910;DHT22;23741;49.446;8.754;2023-08-24T05:18:21;23.90;58.40
37910;DHT22;23741;49.446;8.754;2023-08-24T05:20:23;23.90;58.20
37910;DHT22;23741;49.446;8.754;2023-08-24T05:22:24;23.90;58.20
37910;DHT22;23741;49.446;8.754;2023-08-24T05:24:26;23.90;58.40
37910;DHT22;23741;49.446;8.754;2023-08-24T05:26:28;23.90;58.30
37910;DHT22;23741;49.446;8.754;2023-08-24T05:28:30;23.90;58.40
37910;DHT22;23741;49.446;8.754;2023-08-24T05:30:32;23.90;58.50
37910;DHT22;23741;49.446;8.754;2023-08-24T05:32:34;23.90;58.50
37910;DHT22;23741;49.446;8.754;2023-08-24T05:34:40;23.90;58.50
37910;DHT22;23741;49.446;8.754;2023-08-24T05:36:41;23.90;58.60
37910;DHT22;23741;49.446;8.754;2023-08-24T05:38:43;23.90;58.50
37910;DHT22;23741;49.446;8.754;2023-08-24T05:41:04;23.90;58.70
37910;DHT22;23741;49.446;8.754;2023-08-24T05:43:06;23.90;58.60
37910;DHT22;23741;49.446;8.754;2023-08-24T05:45:07;23.90;58.60
37910;DHT22;23741;49.446;8.754;2023-08-24T05:47:09;23.90;58.80
37910;DHT22;23741;49.446;8.754;2023-08-24T05:49:11;23.90;58.70
37910;DHT22;23741;49.446;8.754;2023-08-24T05:51:13;24.00;58.90
37910;DHT22;23741;49.446;8.754;2023-08-24T05:53:15;24.00;58.90
37910;DHT22;23741;49.446;8.754;2023-08-24T05:55:17;24.00;58.90
37910;DHT22;23741;49.446;8.754;2023-08-24T05:57:19;24.00;58.80
37910;DHT22;23741;49.446;8.754;2023-08-24T05:59:20;24.00;58.90
37910;DHT22;23741;49.446;8.754;2023-08-24T06:01:22;24.00;59.00
37910;DHT22;23741;49.446;8.754;2023-08-24T06:03:25;24.00;59.00
37910;DHT22;23741;49.446;8.754;2023-08-24T06:05:27;24.10;59.00
37910;DHT22;23741;49.446;8.754;2023-08-24T06:07:32;24.10;59.00
37910;DHT22;23741;49.446;8.754;2023-08-24T06:09:33;24.10;58.90
37910;DHT22;23741;49.446;8.754;2023-08-24T06:11:36;24.10;59.00
37910;DHT22;23741;49.446;8.754;2023-08-24T06:13:38;24.10;59.00
37910;DHT22;23741;49.446;8.754;2023-08-24T06:15:40;24.10;59.10
37910;DHT22;23741;49.446;8.754;2023-08-24T06:17:41;24.20;59.20
37910;DHT22;23741;49.446;8.754;2023-08-24T06:19:43;24.20;59.20
37910;DHT22;23741;49.446;8.754;2023-08-24T06:21:45;24.20;59.30
37910;DHT22;23741;49.446;8.754;2023-08-24T06:23:46;24.20;59.10
37910;DHT22;23741;49.446;8.754;2023-08-24T06:25:48;24.30;59.20
37910;DHT22;23741;49.446;8.754;2023-08-24T06:27:50;24.30;59.20
37910;DHT22;23741;49.446;8.754;2023-08-24T06:29:52;24.30;59.10
37910;DHT22;23741;49.446;8.754;2023-08-24T06:31:54;24.30;59.10
37910;DHT22;23741;49.446;8.754;2023-08-24T06:33:56;24.30;59.30
37910;DHT22;23741;49.446;8.754;2023-08-24T06:35:58;24.40;59.40
37910;DHT22;23741;49.446;8.754;2023-08-24T06:38:00;24.40;59.30
37910;DHT22;23741;49.446;8.754;2023-08-24T06:40:02;24.40;59.10
37910;DHT22;23741;49.446;8.754;2023-08-24T06:42:06;24.50;59.30
37910;DHT22;23741;49.446;8.754;2023-08-24T06:44:08;24.50;59.30
37910;DHT22;23741;49.446;8.754;2023-08-24T06:46:10;24.50;60.00
37910;DHT22;23741;49.446;8.754;2023-08-24T06:48:12;24.50;59.20
37910;DHT22;23741;49.446;8.754;2023-08-24T06:50:14;24.60;59.20
37910;DHT22;23741;49.446;8.754;2023-08-24T06:52:16;24.60;59.30
37910;DHT22;23741;49.446;8.754;2023-08-24T06:54:18;24.60;59.40
37910;DHT22;23741;49.446;8.754;2023-08-24T06:56:20;24.60;59.30
37910;DHT22;23741;49.446;8.754;2023-08-24T06:58:22;24.60;59.40
37910;DHT22;23741;49.446;8.754;2023-08-24T07:00:23;24.70;59.50
37910;DHT22;23741;49.446;8.754;2023-08-24T07:02:26;24.60;59.40
37910;DHT22;23741;49.446;8.754;2023-08-24T07:04:28;24.70;59.40
37910;DHT22;23741;49.446;8.754;2023-08-24T07:06:32;24.70;59.40
37910;DHT22;23741;49.446;8.754;2023-08-24T07:08:34;24.70;59.40
37910;DHT22;23741;49.446;8.754;2023-08-24T07:10:39;24.70;59.30
37910;DHT22;23741;49.446;8.754;2023-08-24T07:12:40;24.70;59.30
37910;DHT22;23741;49.446;8.754;2023-08-24T07:14:42;24.80;59.30
37910;DHT22;23741;49.446;8.754;2023-08-24T07:16:44;24.80;59.30
37910;DHT22;23741;49.446;8.754;2023-08-24T07:18:46;24.80;59.10
37910;DHT22;23741;49.446;8.754;2023-08-24T07:20:47;24.80;59.00
37910;DHT22;23741;49.446;8.754;2023-08-24T07:22:49;24.80;59.00
37910;DHT22;23741;49.446;8.754;2023-08-24T07:24:52;24.90;59.00
37910;DHT22;23741;49.446;8.754;2023-08-24T07:26:54;24.90;59.00
37910;DHT22;23741;49.446;8.754;2023-08-24T07:28:56;24.90;58.80
37910;DHT22;23741;49.446;8.754;2023-08-24T07:30:57;25.00;58.70
37910;DHT22;23741;49.446;8.754;2023-08-24T07:33:00;25.00;58.60
37910;DHT22;23741;49.446;8.754;2023-08-24T07:35:02;25.00;58.60
37910;DHT22;23741;49.446;8.754;2023-08-24T07:37:03;25.00;58.60
37910;DHT22;23741;49.446;8.754;2023-08-24T07:39:05;25.10;58.60
37910;DHT22;23741;49.446;8.754;2023-08-24T07:41:07;25.10;58.50
37910;DHT22;23741;49.446;8.754;2023-08-24T07:43:10;25.20;58.70
37910;DHT22;23741;49.446;8.754;2023-08-24T07:45:12;25.20;58.70
37910;DHT22;23741;49.446;8.754;2023-08-24T07:47:15;25.20;58.50
37910;DHT22;23741;49.446;8.754;2023-08-24T07:49:17;25.20;58.40
37910;DHT22;23741;49.446;8.754;2023-08-24T07:51:19;25.30;58.40
37910;DHT22;23741;49.446;8.754;2023-08-24T07:53:21;25.40;58.40
37910;DHT22;23741;49.446;8.754;2023-08-24T07:55:22;25.40;58.40
37910;DHT22;23741;49.446;8.754;2023-08-24T07:57:24;25.40;58.30
37910;DHT22;23741;49.446;8.754;2023-08-24T07:59:27;25.50;58.30
37910;DHT22;23741;49.446;8.754;2023-08-24T08:01:29;25.50;58.10
37910;DHT22;23741;49.446;8.754;2023-08-24T08:03:32;25.60;58.20
37910;DHT22;23741;49.446;8.754;2023-08-24T08:05:35;25.70;58.10
37910;DHT22;23741;49.446;8.754;2023-08-24T08:07:37;25.70;58.10
37910;DHT22;23741;49.446;8.754;2023-08-24T08:09:39;25.80;58.20
37910;DHT22;23741;49.446;8.754;2023-08-24T08:11:40;25.90;58.20
37910;DHT22;23741;49.446;8.754;2023-08-24T08:13:42;25.90;58.20
37910;DHT22;23741;49.446;8.754;2023-08-24T08:15:44;25.90;58.10
37910;DHT22;23741;49.446;8.754;2023-08-24T08:17:46;26.00;58.20
37910;DHT22;23741;49.446;8.754;2023-08-24T08:19:47;26.00;58.30
37910;DHT22;23741;49.446;8.754;2023-08-24T08:21:49;26.10;58.40
37910;DHT22;23741;49.446;8.754;2023-08-24T08:23:51;26.10;58.40
37910;DHT22;23741;49.446;8.754;2023-08-24T08:25:53;26.10;58.40
37910;DHT22;23741;49.446;8.754;2023-08-24T08:27:54;26.20;58.20
37910;DHT22;23741;49.446;8.754;2023-08-24T08:29:56;26.20;58.00
37910;DHT22;23741;49.446;8.754;2023-08-24T08:31:58;26.30;57.90
37910;DHT22;23741;49.446;8.754;2023-08-24T08:34:00;26.30;57.90
37910;DHT22;23741;49.446;8.754;2023-08-24T08:36:01;26.30;57.90
37910;DHT22;23741;49.446;8.754;2023-08-24T08:38:05;26.40;57.80
37910;DHT22;23741;49.446;8.754;2023-08-24T08:40:09;26.40;57.70
37910;DHT22;23741;49.446;8.754;2023-08-24T08:42:11;26.40;57.60
37910;DHT22;23741;49.446;8.754;2023-08-24T08:44:14;26.40;57.50
37910;DHT22;23741;49.446;8.754;2023-08-24T08:46:16;26.50;57.50
37910;DHT22;23741;49.446;8.754;2023-08-24T08:48:18;26.50;57.50
37910;DHT22;23741;49.446;8.754;2023-08-24T08:50:21;26.60;57.50
37910;DHT22;23741;49.446;8.754;2023-08-24T08:52:23;26.60;57.20
37910;DHT22;23741;49.446;8.754;2023-08-24T08:54:27;26.60;57.30
37910;DHT22;23741;49.446;8.754;2023-08-24T08:56:29;26.70;57.30
37910;DHT22;23741;49.446;8.754;2023-08-24T08:58:31;26.80;57.30
37910;DHT22;23741;49.446;8.754;2023-08-24T09:00:33;26.90;57.30
37910;DHT22;23741;49.446;8.754;2023-08-24T09:02:35;26.90;57.20
37910;DHT22;23741;49.446;8.754;2023-08-24T09:04:37;26.90;57.30
37910;DHT22;23741;49.446;8.754;2023-08-24T09:06:40;27.00;56.90
37910;DHT22;23741;49.446;8.754;2023-08-24T09:08:42;27.00;57.00
37910;DHT22;23741;49.446;8.754;2023-08-24T09:10:44;27.10;57.00
37910;DHT22;23741;49.446;8.754;2023-08-24T09:12:46;27.10;57.10
37910;DHT22;23741;49.446;8.754;2023-08-24T09:14:48;27.20;57.20
37910;DHT22;23741;49.446;8.754;2023-08-24T09:16:49;27.20;57.10
37910;DHT22;23741;49.446;8.754;2023-08-24T09:18:51;27.20;56.80
37910;DHT22;23741;49.446;8.754;2023-08-24T09:20:53;27.30;56.90
37910;DHT22;23741;49.446;8.754;2023-08-24T09:22:55;27.40;56.90
37910;DHT22;23741;49.446;8.754;2023-08-24T09:24:59;27.40;56.80
37910;DHT22;23741;49.446;8.754;2023-08-24T09:27:16;27.50;56.90
37910;DHT22;23741;49.446;8.754;2023-08-24T09:29:19;27.50;56.70
37910;DHT22;23741;49.446;8.754;2023-08-24T09:31:20;27.60;56.70
37910;DHT22;23741;49.446;8.754;2023-08-24T09:33:22;27.60;56.70
37910;DHT22;23741;49.446;8.754;2023-08-24T09:35:26;27.70;56.80
37910;DHT22;23741;49.446;8.754;2023-08-24T09:37:31;27.70;56.70
37910;DHT22;23741;49.446;8.754;2023-08-24T09:39:33;27.80;56.70
37910;DHT22;23741;49.446;8.754;2023-08-24T09:41:43;27.80;56.60
37910;DHT22;23741;49.446;8.754;2023-08-24T09:43:45;27.90;56.50
37910;DHT22;23741;49.446;8.754;2023-08-24T09:45:53;28.00;56.50
37910;DHT22;23741;49.446;8.754;2023-08-24T09:47:55;28.00;56.40
37910;DHT22;23741;49.446;8.754;2023-08-24T09:49:59;28.10;56.50
37910;DHT22;23741;49.446;8.754;2023-08-24T09:52:00;28.10;56.20
37910;DHT22;23741;49.446;8.754;2023-08-24T09:54:05;28.20;56.30
37910;DHT22;23741;49.446;8.754;2023-08-24T09:56:07;28.20;55.90
37910;DHT22;23741;49.446;8.754;2023-08-24T09:58:10;28.30;56.00
37910;DHT22;23741;49.446;8.754;2023-08-24T10:00:13;28.40;55.90
37910;DHT22;23741;49.446;8.754;2023-08-24T10:02:20;28.40;55.80
37910;DHT22;23741;49.446;8.754;2023-08-24T10:04:23;28.40;55.80
37910;DHT22;23741;49.446;8.754;2023-08-24T10:06:25;28.50;55.80
37910;DHT22;23741;49.446;8.754;2023-08-24T10:08:39;28.60;55.80
37910;DHT22;23741;49.446;8.754;2023-08-24T10:10:42;28.70;56.00
37910;DHT22;23741;49.446;8.754;2023-08-24T10:12:46;28.70;55.90
37910;DHT22;23741;49.446;8.754;2023-08-24T10:16:57;28.80;55.90
37910;DHT22;23741;49.446;8.754;2023-08-24T10:18:59;28.80;55.90
37910;DHT22;23741;49.446;8.754;2023-08-24T10:21:02;28.90;56.00
37910;DHT22;23741;49.446;8.754;2023-08-24T10:23:04;28.90;55.60
37910;DHT22;23741;49.446;8.754;2023-08-24T10:25:06;29.00;55.90
37910;DHT22;23741;49.446;8.754;2023-08-24T10:27:08;29.00;55.70
37910;DHT22;23741;49.446;8.754;2023-08-24T10:29:10;29.00;55.30
37910;DHT22;23741;49.446;8.754;2023-08-24T10:31:12;29.10;55.50
37910;DHT22;23741;49.446;8.754;2023-08-24T10:33:14;29.20;55.70
37910;DHT22;23741;49.446;8.754;2023-08-24T10:35:17;29.30;55.70
37910;DHT22;23741;49.446;8.754;2023-08-24T10:37:24;29.30;55.70
37910;DHT22;23741;49.446;8.754;2023-08-24T10:39:26;29.40;55.80
37910;DHT22;23741;49.446;8.754;2023-08-24T10:41:29;29.40;55.80
37910;DHT22;23741;49.446;8.754;2023-08-24T10:43:34;29.50;55.20
37910;DHT22;23741;49.446;8.754;2023-08-24T10:47:58;29.70;55.20
37910;DHT22;23741;49.446;8.754;2023-08-24T10:50:00;29.70;55.50
37910;DHT22;23741;49.446;8.754;2023-08-24T10:52:18;29.80;55.30
37910;DHT22;23741;49.446;8.754;2023-08-24T10:54:29;29.90;55.00
37910;DHT22;23741;49.446;8.754;2023-08-24T10:58:33;30.00;55.10
37910;DHT22;23741;49.446;8.754;2023-08-24T11:00:35;30.10;55.10
37910;DHT22;23741;49.446;8.754;2023-08-24T11:02:41;30.20;55.00
37910;DHT22;23741;49.446;8.754;2023-08-24T11:07:05;30.40;55.20
37910;DHT22;23741;49.446;8.754;2023-08-24T11:09:07;30.40;54.90
37910;DHT22;23741;49.446;8.754;2023-08-24T11:11:21;30.50;55.00
37910;DHT22;23741;49.446;8.754;2023-08-24T11:13:23;30.60;54.90
37910;DHT22;23741;49.446;8.754;2023-08-24T11:15:34;30.70;55.00
37910;DHT22;23741;49.446;8.754;2023-08-24T11:17:38;30.80;54.60
37910;DHT22;23741;49.446;8.754;2023-08-24T11:19:45;31.00;54.80
37910;DHT22;23741;49.446;8.754;2023-08-24T11:21:48;31.00;55.00
37910;DHT22;23741;49.446;8.754;2023-08-24T11:23:49;31.10;55.10
37910;DHT22;23741;49.446;8.754;2023-08-24T11:25:52;31.20;54.90
37910;DHT22;23741;49.446;8.754;2023-08-24T11:27:57;31.30;54.60
37910;DHT22;23741;49.446;8.754;2023-08-24T11:30:00;31.40;54.30
37910;DHT22;23741;49.446;8.754;2023-08-24T11:32:02;31.40;54.10
37910;DHT22;23741;49.446;8.754;2023-08-24T11:34:04;31.60;54.40
37910;DHT22;23741;49.446;8.754;2023-08-24T11:36:07;31.60;54.10
37910;DHT22;23741;49.446;8.754;2023-08-24T11:38:09;31.70;54.00
37910;DHT22;23741;49.446;8.754;2023-08-24T11:40:16;31.80;53.70
37910;DHT22;23741;49.446;8.754;2023-08-24T11:42:18;31.80;54.00
37910;DHT22;23741;49.446;8.754;2023-08-24T11:44:19;31.80;53.70
37910;DHT22;23741;49.446;8.754;2023-08-24T11:46:30;31.90;53.80
37910;DHT22;23741;49.446;8.754;2023-08-24T11:48:32;31.90;53.60
37910;DHT22;23741;49.446;8.754;2023-08-24T11:50:34;32.00;53.70
37910;DHT22;23741;49.446;8.754;2023-08-24T11:52:39;32.10;53.60
37910;DHT22;23741;49.446;8.754;2023-08-24T11:54:41;32.10;53.50
37910;DHT22;23741;49.446;8.754;2023-08-24T11:56:44;32.10;53.40
37910;DHT22;23741;49.446;8.754;2023-08-24T11:58:48;32.10;53.00
37910;DHT22;23741;49.446;8.754;2023-08-24T12:00:51;32.20;53.20
37910;DHT22;23741;49.446;8.754;2023-08-24T12:02:53;32.20;53.00
37910;DHT22;23741;49.446;8.754;2023-08-24T12:04:55;32.20;52.90
37910;DHT22;23741;49.446;8.754;2023-08-24T12:06:57;32.20;53.10
37910;DHT22;23741;49.446;8.754;2023-08-24T12:08:59;32.20;52.90
37910;DHT22;23741;49.446;8.754;2023-08-24T12:11:01;32.20;52.80
37910;DHT22;23741;49.446;8.754;2023-08-24T12:13:04;32.20;53.00
37910;DHT22;23741;49.446;8.754;2023-08-24T12:15:15;32.20;52.70
37910;DHT22;23741;49.446;8.754;2023-08-24T12:17:17;32.20;52.80
37910;DHT22;23741;49.446;8.754;2023-08-24T12:19:21;32.30;52.90
37910;DHT22;23741;49.446;8.754;2023-08-24T12:21:23;32.30;52.80
37910;DHT22;23741;49.446;8.754;2023-08-24T12:23:26;32.30;51.80
37910;DHT22;23741;49.446;8.754;2023-08-24T12:25:28;32.20;52.40
37910;DHT22;23741;49.446;8.754;2023-08-24T12:27:31;32.30;52.70
37910;DHT22;23741;49.446;8.754;2023-08-24T12:29:33;32.30;52.60
37910;DHT22;23741;49.446;8.754;2023-08-24T12:31:35;32.30;52.80
37910;DHT22;23741;49.446;8.754;2023-08-24T12:33:37;32.30;52.80
37910;DHT22;23741;49.446;8.754;2023-08-24T12:35:39;32.30;52.80
37910;DHT22;23741;49.446;8.754;2023-08-24T12:37:40;32.40;53.10
37910;DHT22;23741;49.446;8.754;2023-08-24T12:39:42;32.40;53.00
37910;DHT22;23741;49.446;8.754;2023-08-24T12:41:44;32.40;52.90
37910;DHT22;23741;49.446;8.754;2023-08-24T12:43:45;32.50;53.00
37910;DHT22;23741;49.446;8.754;2023-08-24T12:45:48;32.50;53.00
37910;DHT22;23741;49.446;8.754;2023-08-24T12:47:50;32.60;52.90
37910;DHT22;23741;49.446;8.754;2023-08-24T12:49:52;32.60;52.90
37910;DHT22;23741;49.446;8.754;2023-08-24T12:51:56;32.60;52.90
37910;DHT22;23741;49.446;8.754;2023-08-24T12:53:57;32.60;52.60
37910;DHT22;23741;49.446;8.754;2023-08-24T12:55:59;32.70;52.80
37910;DHT22;23741;49.446;8.754;2023-08-24T12:58:01;32.70;52.60
37910;DHT22;23741;49.446;8.754;2023-08-24T13:00:03;32.70;52.60
37910;DHT22;23741;49.446;8.754;2023-08-24T13:02:05;32.70;52.60
37910;DHT22;23741;49.446;8.754;2023-08-24T13:04:07;32.70;52.60
37910;DHT22;23741;49.446;8.754;2023-08-24T13:06:08;32.70;52.60
37910;DHT22;23741;49.446;8.754;2023-08-24T13:08:24;32.80;52.60